CheckWX is a tool to help pilots better visualize weather data.  It is not intended as a substitute for an official pre-flight weather briefing.

11:51:01 UTC

KLJF METAR
Litchfield Municipal Airport
Litchfield, Minnesota, USA
Current

16 mins ago

KLJF 241135Z AUTO 12005KT 7SM DZ BKN010 BKN015 OVC038 11/11 A2999 RMK AO2
Observed
May-24 @ 11:35 UTC
Wind
  • 120° at 5 KTS
Visibility
7 SM
Flight Rules
MVFR
Conditions
Drizzle
Cloud Levels
  • Broken at 1,000' AGL
  • Broken at 1,500' AGL
  • Overcast at 3,800' AGL
Temperature
11°C / 52°F
Dewpoint
11°C / 52°F
Humidity
100%
Altimeter
29.99" Hg
Pressure
1015.62 hPa
Previous

36 mins ago

KLJF 241115Z AUTO 11007KT 10SM -DZ SCT 11/11 A2999 RMK AO2
Observed
May-24 @ 11:15 UTC
Wind
  • 110° at 7 KTS
Visibility
10 SM
Conditions
Light Drizzle
Temperature
11°C / 52°F
Dewpoint
11°C / 52°F
Humidity
100%
Altimeter
29.99" Hg
Pressure
1015.62 hPa
Previous

56 mins ago

KLJF 241055Z AUTO 10013KT 10SM -DZ CLR 11/11 A2996 RMK AO2
Observed
May-24 @ 10:55 UTC
Wind
  • 100° at 13 KTS
Visibility
10 SM
Flight Rules
VFR
Conditions
Light Drizzle
Cloud Levels
  • Clear skies
Temperature
11°C / 52°F
Dewpoint
11°C / 52°F
Humidity
100%
Altimeter
29.96" Hg
Pressure
1014.52 hPa